Time;durP1;ratioP1;P1;durP2;ratioP2;P2;SDS_P1;SDS_P2;PMS_P1;PMS_P2;Temp;Humidity;BMP_temperature;BMP_pressure;BME280_temperature;BME280_humidity;BME280_pressure;Samples;Min_cycle;Max_cycle;Signal;HPM_P1;HPM_P2
2021/12/18 00:00:21;;;;;;;4.20;3.30;;;6.00;99.90;;;6.69;100.00;100226.56;5049435;28;20484;-82
2021/12/18 00:02:53;;;;;;;4.07;3.50;;;5.90;99.90;;;6.69;100.00;100229.97;5049463;28;20991;-83
2021/12/18 00:05:24;;;;;;;5.03;3.67;;;5.90;99.90;;;6.73;100.00;100215.00;5044734;28;20976;-83
2021/12/18 00:07:54;;;;;;;5.37;3.90;;;6.00;99.90;;;6.74;100.00;100219.25;5049086;28;21039;-83
2021/12/18 00:10:23;;;;;;;7.33;3.50;;;6.00;99.90;;;6.74;100.00;100220.06;5050809;28;20500;-83
2021/12/18 00:12:53;;;;;;;5.90;4.00;;;5.90;99.90;;;6.65;100.00;100206.91;5050424;28;20876;-83
2021/12/18 00:15:25;;;;;;;9.90;3.40;;;5.90;99.90;;;6.57;100.00;100210.88;5047185;28;20482;-83
2021/12/18 00:17:57;;;;;;;5.90;3.97;;;5.90;99.90;;;6.55;100.00;100204.13;5042513;28;20477;-83
2021/12/18 00:20:28;;;;;;;5.50;3.70;;;5.80;99.90;;;6.57;100.00;100197.03;5048149;28;20552;-82
2021/12/18 00:22:58;;;;;;;7.03;3.67;;;5.90;99.90;;;6.63;100.00;100201.00;5045820;28;20480;-82
2021/12/18 00:25:30;;;;;;;4.00;3.30;;;6.00;99.90;;;6.59;100.00;100203.78;5046300;28;20822;-83
2021/12/18 00:28:00;;;;;;;5.87;3.93;;;6.00;99.90;;;6.52;100.00;100196.56;5049183;28;20970;-83
2021/12/18 00:30:30;;;;;;;7.43;3.87;;;5.90;99.90;;;6.47;100.00;100196.03;5046751;28;20576;-83
2021/12/18 00:33:04;;;;;;;6.20;3.30;;;5.90;99.90;;;6.50;100.00;100190.63;5044861;28;21000;-82
2021/12/18 00:35:34;;;;;;;5.50;3.50;;;5.90;99.90;;;6.50;100.00;100191.44;5049670;28;20546;-83
2021/12/18 00:38:06;;;;;;;5.10;3.60;;;5.90;99.90;;;6.52;100.00;100191.34;5042495;28;20493;-83
2021/12/18 00:40:46;;;;;;;4.40;3.17;;;5.90;99.90;;;6.48;100.00;100193.34;5048372;28;20981;-82
2021/12/18 00:43:25;;;;;;;4.40;3.17;;;5.80;99.90;;;6.53;100.00;100190.41;5048106;28;20464;-82
2021/12/18 00:45:55;;;;;;;6.27;3.90;;;5.80;99.90;;;6.56;100.00;100195.38;5041157;28;20893;-83
2021/12/18 00:48:26;;;;;;;7.40;4.20;;;5.80;99.90;;;6.61;100.00;100195.06;5048584;28;20993;-82
2021/12/18 00:50:57;;;;;;;4.67;3.67;;;5.80;99.90;;;6.61;100.00;100193.28;5045336;28;20791;-82
2021/12/18 00:53:32;;;;;;;6.37;3.90;;;5.80;99.90;;;6.64;100.00;100203.47;5048773;28;20500;-83
2021/12/18 00:56:03;;;;;;;6.07;3.50;;;5.90;99.90;;;6.63;100.00;100204.41;5049352;28;20507;-83
2021/12/18 00:58:32;;;;;;;4.87;3.60;;;5.90;99.90;;;6.67;100.00;100197.22;5042405;28;20544;-82
2021/12/18 01:01:06;;;;;;;7.53;4.37;;;5.90;99.90;;;6.67;100.00;100208.44;5042005;28;20458;-83
2021/12/18 01:03:39;;;;;;;5.67;4.27;;;5.90;99.90;;;6.66;100.00;100217.22;5045891;28;20563;-82
2021/12/18 01:06:09;;;;;;;6.57;4.30;;;5.90;99.90;;;6.58;100.00;100206.50;5039231;28;20494;-83
2021/12/18 01:08:41;;;;;;;5.77;4.33;;;5.80;99.90;;;6.62;100.00;100207.97;5047955;28;20496;-83
2021/12/18 01:11:31;;;;;;;7.70;4.60;;;5.80;99.90;;;6.63;100.00;100208.78;5048933;28;20535;-83
2021/12/18 01:14:43;;;;;;;6.00;4.43;;;5.80;99.90;;;6.63;100.00;100206.19;5026611;28;20500;-82
2021/12/18 01:23:03;;;;;;;9.03;5.60;;;5.90;99.90;;;6.69;100.00;100208.34;5004755;28;20466;-83
2021/12/18 01:25:35;;;;;;;8.97;4.80;;;6.00;99.90;;;6.70;100.00;100205.63;5032285;28;20461;-83
2021/12/18 01:28:05;;;;;;;8.17;4.60;;;6.00;99.90;;;6.69;100.00;100201.38;5047253;28;20834;-83
2021/12/18 01:30:37;;;;;;;7.07;4.83;;;6.00;99.90;;;6.69;100.00;100201.38;5043791;28;20464;-83
2021/12/18 01:33:07;;;;;;;6.50;4.80;;;5.90;99.90;;;6.70;100.00;100202.22;5048321;28;20547;-83
2021/12/18 01:35:39;;;;;;;6.33;4.80;;;5.90;99.90;;;6.69;100.00;100201.38;5047486;28;20457;-82
2021/12/18 01:38:09;;;;;;;7.87;5.47;;;5.90;99.90;;;6.70;100.00;100200.44;5040872;28;20558;-83
2021/12/18 01:40:39;;;;;;;7.60;4.83;;;5.90;99.90;;;6.71;100.00;100201.25;5045151;28;20457;-83
2021/12/18 01:46:35;;;;;;;6.20;4.30;;;6.00;99.90;;;6.67;100.00;100203.25;5042968;28;20980;-83
2021/12/18 01:52:17;;;;;;;7.83;5.20;;;5.90;99.90;;;6.69;100.00;100200.56;5049315;28;20775;-83
2021/12/18 01:54:54;;;;;;;7.67;4.93;;;5.90;99.90;;;6.72;100.00;100210.72;5048330;28;20549;-83
2021/12/18 01:57:25;;;;;;;6.30;4.47;;;5.90;99.90;;;6.70;100.00;100212.63;5046086;28;20519;-83
2021/12/18 01:59:55;;;;;;;8.77;4.83;;;5.80;99.90;;;6.71;100.00;100209.91;5044858;28;20489;-83
2021/12/18 02:02:24;;;;;;;6.20;4.13;;;5.90;99.90;;;6.70;100.00;100202.22;5034307;28;20464;-83
2021/12/18 02:04:55;;;;;;;8.40;4.83;;;5.90;99.90;;;6.69;100.00;100198.78;5042331;28;20457;-83
2021/12/18 02:07:28;;;;;;;7.90;4.50;;;5.90;99.90;;;6.66;100.00;100212.00;5042696;28;20465;-83
2021/12/18 02:10:03;;;;;;;6.87;5.00;;;5.80;99.90;;;6.70;100.00;100215.22;5039355;28;20544;-83
2021/12/18 02:12:41;;;;;;;6.73;5.13;;;5.90;99.90;;;6.67;100.00;100207.63;5040529;28;20484;-83
2021/12/18 02:20:51;;;;;;;6.97;5.20;;;5.90;99.90;;;6.64;100.00;100200.88;5039908;28;20469;-83
2021/12/18 02:23:21;;;;;;;7.10;4.40;;;5.90;99.90;;;6.69;100.00;100210.94;5042656;28;20455;-84
2021/12/18 02:25:52;;;;;;;8.30;4.67;;;5.80;99.90;;;6.66;100.00;100205.97;5038688;28;20937;-83
2021/12/18 02:28:25;;;;;;;7.50;4.93;;;5.90;99.90;;;6.64;100.00;100205.22;5042670;28;20907;-83
2021/12/18 02:30:59;;;;;;;7.07;5.13;;;5.90;99.90;;;6.64;100.00;100203.47;5042277;28;20532;-83
2021/12/18 02:33:30;;;;;;;11.23;5.90;;;5.80;99.90;;;6.67;100.00;100203.25;5046774;28;20911;-82
2021/12/18 02:36:05;;;;;;;6.20;5.03;;;5.90;99.90;;;6.69;100.00;100209.19;5043674;28;20522;-82
2021/12/18 02:38:58;;;;;;;6.57;5.40;;;5.90;99.90;;;6.68;100.00;100209.28;5038443;28;20473;-83
2021/12/18 02:41:33;;;;;;;8.83;5.40;;;5.80;99.90;;;6.69;100.00;100205.75;5045686;28;21033;-83
2021/12/18 02:44:08;;;;;;;8.33;6.30;;;5.90;99.90;;;6.66;100.00;100204.22;5044117;28;20492;-83
2021/12/18 02:46:38;;;;;;;6.70;5.30;;;5.80;99.90;;;6.62;100.00;100199.31;5048114;28;20495;-83
2021/12/18 02:49:12;;;;;;;10.67;6.27;;;5.80;99.90;;;6.63;100.00;100201.00;5041582;28;20580;-83
2021/12/18 02:51:45;;;;;;;9.80;6.73;;;5.80;99.90;;;6.68;100.00;100199.72;5045245;28;20461;-83
2021/12/18 02:54:16;;;;;;;9.77;5.73;;;5.90;99.90;;;6.68;100.00;100191.91;5048240;28;20453;-83
2021/12/18 02:56:45;;;;;;;7.00;6.00;;;5.90;99.90;;;6.70;100.00;100186.63;5045524;28;20465;-83
2021/12/18 02:59:16;;;;;;;9.13;6.10;;;5.80;99.90;;;6.70;100.00;100197.03;5045147;28;20485;-83
2021/12/18 03:01:47;;;;;;;8.43;6.00;;;5.90;99.90;;;6.68;100.00;100188.50;5044033;28;21027;-82
2021/12/18 03:04:21;;;;;;;7.27;5.97;;;5.90;99.90;;;6.64;100.00;100177.47;5042152;28;20454;-83
2021/12/18 03:06:58;;;;;;;8.00;6.00;;;5.80;99.90;;;6.59;100.00;100177.00;5042447;28;20457;-83
2021/12/18 03:26:12;;;;;;;8.73;6.90;;;5.90;99.90;;;6.64;100.00;100180.06;5041115;28;20464;-83
2021/12/18 03:28:43;;;;;;;9.23;6.63;;;5.80;99.90;;;6.64;100.00;100179.25;5048393;28;20493;-83
2021/12/18 03:31:12;;;;;;;10.40;7.20;;;5.90;99.90;;;6.61;100.00;100177.69;5051642;28;20465;-83
2021/12/18 03:33:42;;;;;;;8.63;6.10;;;5.90;99.90;;;6.60;100.00;100191.63;5048874;28;20568;-83
2021/12/18 03:36:12;;;;;;;9.00;6.73;;;5.90;99.90;;;6.60;100.00;100186.44;5050426;28;20461;-83
2021/12/18 03:38:44;;;;;;;10.77;6.53;;;5.90;99.90;;;6.63;100.00;100185.41;5040168;28;20880;-83
2021/12/18 03:41:15;;;;;;;11.03;5.90;;;5.90;99.90;;;6.58;100.00;100178.75;5047201;28;20506;-82
2021/12/18 03:43:46;;;;;;;12.20;6.90;;;5.80;99.90;;;6.62;100.00;100183.72;5045450;28;20465;-83
2021/12/18 03:46:15;;;;;;;11.43;6.77;;;5.80;99.90;;;6.61;100.00;100188.09;5048766;28;20451;-83
2021/12/18 03:48:46;;;;;;;11.40;7.00;;;5.80;99.90;;;6.62;100.00;100188.94;5036784;28;20946;-83
2021/12/18 03:51:15;;;;;;;10.60;6.80;;;5.90;99.90;;;6.64;100.00;100192.25;5044819;28;20546;-83
2021/12/18 03:53:46;;;;;;;12.77;7.67;;;5.90;99.90;;;6.64;100.00;100182.69;5046509;28;20464;-82
2021/12/18 03:56:17;;;;;;;10.87;7.07;;;5.90;99.90;;;6.64;100.00;100184.44;5046935;28;21013;-83
2021/12/18 03:58:48;;;;;;;12.47;7.60;;;5.80;99.90;;;6.62;100.00;100191.53;5049400;28;20480;-82
2021/12/18 04:01:18;;;;;;;8.40;6.67;;;5.80;99.90;;;6.59;100.00;100190.78;5048900;28;20873;-83
2021/12/18 04:03:49;;;;;;;11.93;6.90;;;5.80;99.90;;;6.58;100.00;100189.16;5046290;28;20457;-83
2021/12/18 04:06:20;;;;;;;12.83;7.67;;;5.80;99.90;;;6.59;100.00;100190.00;5045065;28;20946;-83
2021/12/18 04:08:52;;;;;;;11.13;7.40;;;5.80;99.90;;;6.61;100.00;100188.09;5049428;28;20464;-83
2021/12/18 04:11:23;;;;;;;11.47;7.27;;;5.80;99.90;;;6.63;100.00;100190.59;5046346;28;20481;-83
2021/12/18 04:13:53;;;;;;;12.17;6.73;;;5.90;99.90;;;6.63;100.00;100195.81;5049336;28;20461;-82
2021/12/18 04:16:23;;;;;;;13.97;7.13;;;5.80;99.90;;;6.62;100.00;100194.13;5037315;28;20476;-83
2021/12/18 04:18:54;;;;;;;12.10;7.10;;;5.80;99.90;;;6.63;100.00;100198.41;5045192;28;20515;-83
2021/12/18 04:21:23;;;;;;;11.00;7.07;;;5.80;99.90;;;6.60;100.00;100196.81;5038387;28;20465;-83
2021/12/18 04:23:53;;;;;;;14.13;6.70;;;5.80;99.90;;;6.58;100.00;100194.34;5046850;28;20469;-83
2021/12/18 04:26:24;;;;;;;9.60;6.90;;;5.90;99.90;;;6.53;100.00;100195.59;5047493;28;20522;-83
2021/12/18 04:28:55;;;;;;;10.67;6.23;;;6.00;99.90;;;6.50;100.00;100201.00;5046065;28;20495;-83
2021/12/18 04:31:24;;;;;;;11.53;7.00;;;5.90;99.90;;;6.47;100.00;100196.88;5046259;28;20529;-83
2021/12/18 04:33:54;;;;;;;16.10;6.57;;;5.90;99.90;;;6.47;100.00;100191.69;5046303;28;20464;-82
2021/12/18 04:36:25;;;;;;;15.77;7.47;;;5.80;99.90;;;6.45;100.00;100203.97;5041760;28;20472;-82
2021/12/18 04:38:57;;;;;;;10.77;6.70;;;5.70;99.90;;;6.47;100.00;100196.88;5039597;28;20879;-81
2021/12/18 04:41:38;;;;;;;11.83;7.10;;;5.70;99.90;;;6.48;100.00;100206.34;5043097;28;20998;-82
2021/12/18 04:44:09;;;;;;;13.33;7.27;;;5.80;99.90;;;6.50;100.00;100201.00;5040166;28;20457;-82
2021/12/18 04:46:39;;;;;;;10.40;7.07;;;5.80;99.90;;;6.51;100.00;100192.28;5045127;28;20470;-85
2021/12/18 04:49:07;;;;;;;18.60;10.13;;;5.70;99.90;;;6.44;100.00;100191.91;5039536;28;20461;-80
2021/12/18 04:51:36;;;;;;;14.17;7.77;;;5.60;99.90;;;6.45;100.00;100203.97;5049739;28;20465;-81
2021/12/18 04:54:07;;;;;;;9.83;6.27;;;5.70;99.90;;;6.46;100.00;100216.00;5049205;28;20459;-81
2021/12/18 04:56:36;;;;;;;16.03;7.70;;;5.80;99.90;;;6.47;100.00;100209.88;5048128;28;20870;-81
2021/12/18 04:59:06;;;;;;;11.43;6.80;;;5.80;99.90;;;6.46;100.00;100216.00;5042734;28;20534;-81
2021/12/18 05:01:39;;;;;;;10.57;6.63;;;5.80;99.90;;;6.45;100.00;100209.16;5047303;28;20461;-80
2021/12/18 05:04:12;;;;;;;54.87;27.53;;;5.90;99.90;;;6.43;100.00;100208.41;5040221;28;20462;-78
2021/12/18 05:06:45;;;;;;;11.10;7.73;;;5.80;99.90;;;6.46;100.00;100209.97;5047681;28;20457;-80
2021/12/18 05:09:17;;;;;;;10.30;7.17;;;5.70;99.90;;;6.45;100.00;100209.16;5047608;28;20461;-80
2021/12/18 05:11:48;;;;;;;90.77;40.03;;;5.80;99.90;;;6.45;100.00;100209.16;5046130;28;20513;-78
2021/12/18 05:14:17;;;;;;;13.07;7.80;;;5.80;99.90;;;6.42;100.00;100206.75;5047965;28;20465;-79
2021/12/18 05:16:47;;;;;;;14.50;6.93;;;5.80;99.90;;;6.35;100.00;100205.50;5044716;28;20519;-80
2021/12/18 05:19:17;;;;;;;10.43;6.30;;;5.80;99.90;;;6.34;100.00;100206.47;5045593;28;20460;-79
2021/12/18 05:21:48;;;;;;;8.80;6.33;;;5.70;99.90;;;6.37;100.00;100211.44;5045243;28;20461;-81
2021/12/18 05:24:19;;;;;;;17.63;8.87;;;5.80;99.90;;;6.37;100.00;100210.63;5039184;28;20554;-80
2021/12/18 05:26:49;;;;;;;13.67;7.27;;;5.70;99.90;;;6.38;100.00;100205.31;5044057;28;20493;-80
2021/12/18 05:29:19;;;;;;;11.93;7.13;;;5.80;99.90;;;6.39;100.00;100204.38;5045140;28;20957;-79
2021/12/18 05:31:48;;;;;;;11.30;7.70;;;5.70;99.90;;;6.23;100.00;100203.78;5051249;28;20520;-79
2021/12/18 05:34:23;;;;;;;10.87;6.70;;;5.60;99.90;;;6.17;100.00;100209.41;5052257;28;20515;-79
2021/12/18 05:40:00;;;;;;;12.60;6.57;;;5.50;99.90;;;6.15;100.00;100203.47;5028807;28;20451;-79
2021/12/18 05:42:30;;;;;;;11.57;7.33;;;5.50;99.90;;;6.19;100.00;100210.13;5019929;28;20447;-79
2021/12/18 05:44:59;;;;;;;12.53;6.80;;;5.50;99.90;;;6.22;100.00;100199.50;5040462;28;20484;-79
2021/12/18 05:47:28;;;;;;;12.80;6.50;;;5.50;99.90;;;6.15;100.00;100200.88;5051458;28;21015;-79
2021/12/18 05:49:59;;;;;;;12.83;7.43;;;5.50;99.90;;;6.14;100.00;100207.03;5048285;28;20487;-79
2021/12/18 05:52:29;;;;;;;13.50;7.57;;;5.40;99.90;;;6.20;100.00;100211.78;5051845;28;20459;-79
2021/12/18 05:55:01;;;;;;;14.30;7.77;;;5.50;99.90;;;6.23;100.00;100205.53;5049095;28;20926;-79
2021/12/18 05:57:31;;;;;;;12.00;7.13;;;5.40;99.90;;;6.21;100.00;100216.06;5051733;28;20457;-80
2021/12/18 06:00:03;;;;;;;10.33;6.67;;;5.50;99.90;;;6.18;100.00;100208.44;5051508;28;20515;-79
2021/12/18 06:02:33;;;;;;;13.23;7.67;;;5.40;99.90;;;6.21;100.00;100210.03;5050959;28;20485;-79
2021/12/18 06:05:05;;;;;;;14.53;7.50;;;5.50;99.90;;;6.20;100.00;100214.38;5043469;28;20819;-80
2021/12/18 06:07:51;;;;;;;13.63;7.60;;;5.40;99.90;;;6.21;100.00;100215.22;5051072;28;20446;-79
2021/12/18 06:10:27;;;;;;;10.80;6.63;;;5.50;99.90;;;6.08;100.00;100204.81;5050653;28;20981;-79
2021/12/18 06:12:57;;;;;;;12.50;7.57;;;5.30;99.90;;;6.08;100.00;100210.03;5047214;28;20546;-79
2021/12/18 06:15:28;;;;;;;16.10;8.37;;;5.30;99.90;;;6.12;100.00;100211.47;5056849;28;20441;-79
2021/12/18 06:17:57;;;;;;;14.83;8.23;;;5.30;99.90;;;6.15;100.00;100206.06;5045674;28;20466;-79
2021/12/18 06:20:28;;;;;;;13.10;7.57;;;5.30;99.90;;;6.19;100.00;100202.31;5051484;28;20536;-79
2021/12/18 06:22:57;;;;;;;12.30;7.23;;;5.50;99.90;;;6.04;100.00;100206.78;5051180;28;20957;-79
2021/12/18 06:25:29;;;;;;;12.07;7.70;;;5.30;99.90;;;6.07;100.00;100204.00;5051268;28;20471;-79
2021/12/18 06:28:00;;;;;;;12.77;8.03;;;5.30;99.90;;;6.12;100.00;100208.88;5050235;28;20446;-79
2021/12/18 06:30:29;;;;;;;11.40;7.37;;;5.30;99.90;;;6.13;100.00;100202.75;5056125;28;20575;-79
2021/12/18 06:33:00;;;;;;;15.37;7.97;;;5.30;99.90;;;6.16;100.00;100197.34;5047786;28;20445;-79
2021/12/18 06:35:30;;;;;;;13.67;8.63;;;5.30;99.90;;;6.16;100.00;100197.34;5050902;28;20449;-79
2021/12/18 06:38:00;;;;;;;13.97;7.93;;;5.30;99.90;;;6.18;100.00;100205.03;5047289;28;20449;-79
2021/12/18 06:40:31;;;;;;;12.77;8.10;;;5.30;99.90;;;6.19;100.00;100207.53;5046960;28;20481;-79
2021/12/18 06:43:01;;;;;;;13.63;7.50;;;5.40;99.90;;;6.04;100.00;100203.38;5050648;28;20481;-79
2021/12/18 06:45:30;;;;;;;14.80;7.77;;;5.40;99.90;;;6.05;100.00;100200.69;5043475;28;20783;-79
2021/12/18 06:48:00;;;;;;;13.20;7.80;;;5.50;99.90;;;6.01;100.00;100200.97;5044197;28;20453;-78
2021/12/18 06:50:30;;;;;;;11.00;7.73;;;5.40;99.90;;;5.93;100.00;100206.72;5046562;28;20904;-79
2021/12/18 06:52:59;;;;;;;16.27;8.40;;;5.30;99.90;;;5.94;100.00;100205.78;5056977;28;20443;-79
2021/12/18 06:55:31;;;;;;;11.97;7.70;;;5.20;99.90;;;5.94;100.00;100212.72;5043698;28;20499;-79
2021/12/18 06:58:02;;;;;;;14.33;8.47;;;5.20;99.90;;;5.99;100.00;100206.31;5043877;28;20499;-79
2021/12/18 07:00:32;;;;;;;16.27;9.10;;;5.20;99.90;;;6.03;100.00;100204.31;5050174;28;20473;-81
2021/12/18 07:03:04;;;;;;;19.93;9.30;;;5.20;99.90;;;6.05;100.00;100205.03;5049682;28;20547;-79
2021/12/18 07:05:33;;;;;;;14.83;8.70;;;5.20;99.90;;;6.09;100.00;100201.31;5050671;28;20469;-79
2021/12/18 07:08:03;;;;;;;14.40;8.40;;;5.30;99.90;;;6.09;100.00;100201.31;5038010;28;20894;-79
2021/12/18 07:10:35;;;;;;;18.07;8.97;;;5.40;99.90;;;6.07;100.00;100191.00;5048640;28;20445;-79
2021/12/18 07:13:05;;;;;;;14.23;8.63;;;5.40;99.90;;;6.04;100.00;100192.97;5047181;28;20461;-79
2021/12/18 07:15:35;;;;;;;14.47;8.50;;;5.30;99.90;;;6.01;100.00;100194.03;5050455;28;20492;-79
2021/12/18 07:18:05;;;;;;;14.10;8.90;;;5.20;99.90;;;6.03;100.00;100191.34;5050384;28;20468;-79
2021/12/18 07:20:35;;;;;;;14.93;8.80;;;5.20;99.90;;;5.96;100.00;100195.28;5047427;28;20452;-79
2021/12/18 07:23:05;;;;;;;11.73;8.00;;;5.20;99.90;;;5.90;100.00;100190.53;5043346;28;20878;-79
2021/12/18 07:25:36;;;;;;;10.83;8.00;;;5.10;99.90;;;5.92;100.00;100193.84;5050426;28;20509;-79
2021/12/18 07:28:07;;;;;;;11.47;7.53;;;5.20;99.90;;;5.97;100.00;100183.97;5050592;28;20896;-79
2021/12/18 07:30:37;;;;;;;11.30;7.40;;;5.20;99.90;;;5.99;100.00;100189.88;5051203;28;20465;-79
2021/12/18 07:33:10;;;;;;;13.87;8.97;;;5.20;99.90;;;6.01;100.00;100200.97;5047924;28;20755;-79
2021/12/18 07:35:41;;;;;;;18.97;8.07;;;5.20;99.90;;;6.03;100.00;100196.53;5046784;28;20481;-79
2021/12/18 07:38:13;;;;;;;11.03;6.97;;;5.20;99.90;;;6.05;100.00;100199.84;5049574;28;20445;-79
2021/12/18 07:40:44;;;;;;;11.97;7.37;;;5.20;99.90;;;6.05;100.00;100194.66;5050297;28;20449;-79
2021/12/18 07:43:14;;;;;;;14.50;7.90;;;5.30;99.90;;;6.05;100.00;100190.28;5050135;28;20506;-79
2021/12/18 07:45:44;;;;;;;15.60;8.70;;;5.30;99.90;;;6.04;100.00;100187.78;5050501;28;20453;-79
2021/12/18 07:48:14;;;;;;;16.20;8.00;;;5.30;99.90;;;6.03;100.00;100191.34;5046919;28;20442;-79
2021/12/18 07:50:44;;;;;;;11.27;7.77;;;5.30;99.90;;;5.94;100.00;100202.34;5042124;28;20445;-79
2021/12/18 07:53:13;;;;;;;13.23;8.23;;;5.20;99.90;;;5.89;100.00;100199.25;5045031;28;21033;-79
2021/12/18 07:55:45;;;;;;;11.53;7.40;;;5.10;99.90;;;5.84;100.00;100194.31;5047279;28;20855;-79
2021/12/18 07:58:15;;;;;;;11.90;7.50;;;5.10;99.90;;;5.87;100.00;100195.91;5052104;28;20456;-79
2021/12/18 08:00:45;;;;;;;14.07;8.63;;;5.20;99.90;;;5.71;100.00;100195.25;5047844;28;20926;-79
2021/12/18 08:03:14;;;;;;;13.93;8.33;;;4.90;99.90;;;5.73;100.00;100203.75;5046371;28;20549;-79
2021/12/18 08:05:45;;;;;;;15.43;8.80;;;4.90;99.90;;;5.78;100.00;100204.28;5052297;28;20457;-79
2021/12/18 08:08:15;;;;;;;13.60;8.60;;;5.10;99.90;;;5.74;100.00;100214.03;5046257;28;20457;-79
2021/12/18 08:10:47;;;;;;;17.93;8.67;;;5.00;99.90;;;5.78;100.00;100207.72;5052170;28;21120;-79
2021/12/18 08:13:16;;;;;;;13.77;8.40;;;5.10;99.90;;;5.81;100.00;100206.66;5053291;28;20492;-79
2021/12/18 08:15:46;;;;;;;14.40;8.03;;;5.10;99.90;;;5.84;100.00;100215.09;5053473;28;20819;-79
2021/12/18 08:18:15;;;;;;;16.00;8.20;;;5.20;99.90;;;5.84;100.00;100199.50;5047637;28;20547;-79
2021/12/18 08:20:44;;;;;;;10.53;7.67;;;5.30;99.90;;;5.85;100.00;100197.75;5050087;28;20499;-79
2021/12/18 08:23:14;;;;;;;19.40;9.20;;;5.30;99.90;;;5.83;100.00;100194.44;5048791;28;20445;-79
2021/12/18 08:25:48;;;;;;;13.03;7.83;;;5.20;99.90;;;5.85;100.00;100196.00;5053707;28;20455;-79
2021/12/18 08:28:17;;;;;;;15.57;8.63;;;5.20;99.90;;;5.87;100.00;100195.91;5052902;28;20823;-79
2021/12/18 08:30:48;;;;;;;12.17;7.50;;;5.20;99.90;;;5.86;100.00;100202.88;5044469;28;20449;-79
2021/12/18 08:33:17;;;;;;;13.77;7.97;;;5.20;99.90;;;5.84;100.00;100196.91;5053337;28;20492;-79
2021/12/18 08:35:46;;;;;;;14.70;8.30;;;5.20;99.90;;;5.84;100.00;100201.28;5048438;28;20446;-79
2021/12/18 08:38:16;;;;;;;12.47;8.27;;;5.20;99.90;;;5.85;100.00;100203.78;5042885;28;20445;-79
2021/12/18 08:40:47;;;;;;;12.63;8.40;;;5.20;99.90;;;5.86;100.00;100210.66;5053152;28;20502;-79
2021/12/18 08:43:16;;;;;;;12.10;8.13;;;5.20;99.90;;;5.88;100.00;100206.19;5055636;28;20453;-79
2021/12/18 08:45:46;;;;;;;14.47;8.00;;;5.20;99.90;;;5.85;100.00;100208.13;5053032;28;20466;-79
2021/12/18 08:48:15;;;;;;;13.43;7.37;;;5.20;99.90;;;5.82;100.00;100214.38;5052883;28;20953;-79
2021/12/18 08:50:45;;;;;;;15.57;8.60;;;5.20;99.90;;;5.82;100.00;100216.13;5048396;28;20457;-79
2021/12/18 08:53:15;;;;;;;15.37;9.97;;;5.20;99.90;;;5.83;100.00;100212.59;5052969;28;20503;-79
2021/12/18 08:55:46;;;;;;;15.17;8.53;;;5.20;99.90;;;5.80;100.00;100212.78;5053061;28;20452;-79
2021/12/18 08:58:16;;;;;;;14.90;9.33;;;5.10;99.90;;;5.79;100.00;100213.75;5043374;28;20503;-79
2021/12/18 09:00:46;;;;;;;15.53;9.57;;;5.20;99.90;;;5.79;100.00;100218.94;5051842;28;20499;-79
2021/12/18 09:03:16;;;;;;;19.93;9.30;;;5.10;99.90;;;5.74;100.00;100216.63;5052487;28;20987;-79
2021/12/18 09:05:47;;;;;;;12.97;8.50;;;5.10;99.90;;;5.70;100.00;100217.78;5052725;28;20453;-78
2021/12/18 09:08:17;;;;;;;14.90;9.70;;;5.10;99.90;;;5.66;100.00;100218.09;5052931;28;20506;-78
2021/12/18 09:10:47;;;;;;;15.90;10.00;;;5.10;99.90;;;5.68;100.00;100226.59;5053184;28;20838;-78
2021/12/18 09:13:17;;;;;;;17.27;9.43;;;5.10;99.90;;;5.71;100.00;100229.81;5052080;28;20523;-78
2021/12/18 09:15:48;;;;;;;18.10;9.77;;;5.10;99.90;;;5.69;100.00;100231.69;5052275;28;20988;-78
2021/12/18 09:18:18;;;;;;;14.47;9.07;;;5.10;99.90;;;5.68;100.00;100237.81;5054704;28;20818;-78
2021/12/18 09:20:48;;;;;;;12.20;8.03;;;5.10;99.90;;;5.68;100.00;100232.63;5052413;28;20448;-78
2021/12/18 09:23:19;;;;;;;13.77;7.93;;;5.10;99.90;;;5.61;100.00;100227.94;5044854;28;20465;-78
2021/12/18 09:25:51;;;;;;;16.77;9.77;;;4.90;99.90;;;5.62;100.00;100235.63;5052284;28;20449;-78
2021/12/18 09:28:20;;;;;;;18.33;10.33;;;5.00;99.90;;;5.62;100.00;100237.41;5056768;28;20459;-78
2021/12/18 09:30:50;;;;;;;14.40;8.97;;;5.00;99.90;;;5.63;100.00;100236.44;5052370;28;20452;-79
2021/12/18 09:33:20;;;;;;;13.80;8.80;;;5.00;99.90;;;5.59;100.00;100228.88;5043614;28;20840;-78
2021/12/18 09:35:50;;;;;;;13.93;8.80;;;5.00;99.90;;;5.59;100.00;100233.22;5033239;28;20577;-79
2021/12/18 09:38:19;;;;;;;16.23;8.70;;;5.10;99.90;;;5.62;100.00;100233.03;5043789;28;20477;-78
2021/12/18 09:40:50;;;;;;;15.13;8.30;;;5.10;99.90;;;5.58;100.00;100242.78;5051918;28;20930;-78
2021/12/18 09:43:22;;;;;;;13.73;9.13;;;5.00;99.90;;;5.61;100.00;100241.75;5051622;28;20453;-78
2021/12/18 09:45:52;;;;;;;14.77;7.97;;;5.00;99.90;;;5.62;100.00;100243.44;5051877;28;20445;-78
2021/12/18 09:48:23;;;;;;;13.37;8.57;;;5.10;99.90;;;5.59;100.00;100239.25;5044279;28;20528;-78
2021/12/18 09:50:56;;;;;;;13.33;8.20;;;5.10;99.90;;;5.54;100.00;100233.53;5047449;28;20464;-78
2021/12/18 09:53:26;;;;;;;13.60;8.60;;;5.00;99.90;;;5.51;100.00;100231.16;5045314;28;20492;-78
2021/12/18 09:55:57;;;;;;;12.90;7.20;;;5.00;99.90;;;5.51;100.00;100232.91;5058517;28;20445;-78
2021/12/18 09:58:27;;;;;;;14.77;9.03;;;4.90;99.90;;;5.47;100.00;100231.44;5051217;28;20542;-78
2021/12/18 10:00:57;;;;;;;13.00;8.03;;;4.90;99.90;;;5.45;100.00;100228.94;5044993;28;20460;-78
2021/12/18 10:03:46;;;;;;;15.23;8.20;;;4.80;99.90;;;5.45;100.00;100226.34;5049880;28;20445;-77
2021/12/18 10:06:54;;;;;;;15.70;8.57;;;4.80;99.90;;;5.46;100.00;100225.41;5049095;28;20491;-78
2021/12/18 10:09:36;;;;;;;16.47;9.80;;;4.80;99.90;;;5.48;100.00;100220.94;5050180;28;20456;-78
2021/12/18 10:12:17;;;;;;;13.77;8.30;;;4.90;99.90;;;5.48;100.00;100223.56;5050581;28;20543;-78
2021/12/18 10:14:53;;;;;;;11.07;6.77;;;4.90;99.90;;;5.42;100.00;100220.53;5045490;28;20451;-79
2021/12/18 10:17:30;;;;;;;12.93;7.50;;;4.90;99.90;;;5.39;100.00;100212.94;5044522;28;20469;-78
2021/12/18 10:20:22;;;;;;;14.63;8.50;;;4.90;99.90;;;5.37;100.00;100213.06;5051062;28;20888;-78
2021/12/18 10:22:56;;;;;;;16.27;8.13;;;4.90;99.90;;;5.37;100.00;100205.28;5044706;28;20519;-78
2021/12/18 10:25:30;;;;;;;16.07;8.10;;;4.90;99.90;;;5.34;100.00;100197.72;5042650;28;20531;-78
2021/12/18 10:28:11;;;;;;;16.97;9.57;;;4.90;99.90;;;5.31;100.00;100195.28;5047340;28;20632;-78
2021/12/18 10:30:46;;;;;;;16.57;9.30;;;4.90;99.90;;;5.32;100.00;100193.53;5051297;28;20452;-78
2021/12/18 10:33:15;;;;;;;15.33;8.70;;;4.80;99.90;;;5.32;100.00;100186.59;5050994;28;21028;-78
2021/12/18 10:35:50;;;;;;;19.13;9.57;;;4.80;99.90;;;5.35;100.00;100194.16;5046960;28;20818;-79
2021/12/18 10:38:46;;;;;;;14.33;8.87;;;4.80;99.90;;;5.36;100.00;100185.47;5050933;28;20462;-78
2021/12/18 10:41:27;;;;;;;14.23;7.93;;;4.90;99.90;;;5.39;100.00;100194.78;5049709;28;20929;-78
2021/12/18 10:44:06;;;;;;;14.57;8.00;;;4.80;99.90;;;5.41;100.00;100182.56;5039509;28;20463;-78
2021/12/18 10:46:39;;;;;;;15.03;7.47;;;4.80;99.90;;;5.41;100.00;100182.56;5048335;28;20507;-78
2021/12/18 10:49:10;;;;;;;17.60;9.00;;;4.90;99.90;;;5.42;100.00;100179.84;5045116;28;20452;-78
2021/12/18 10:51:41;;;;;;;15.70;9.47;;;4.90;99.90;;;5.39;100.00;100193.03;5049430;28;20466;-78
2021/12/18 10:54:18;;;;;;;11.20;8.07;;;4.90;99.90;;;5.41;100.00;100182.56;5050820;28;20493;-78
2021/12/18 10:56:52;;;;;;;12.63;8.37;;;4.80;99.90;;;5.41;100.00;100174.78;5050854;28;20441;-78
2021/12/18 10:59:31;;;;;;;15.47;9.43;;;4.90;99.90;;;5.45;100.00;100182.25;5049953;28;20503;-78
2021/12/18 11:02:04;;;;;;;9.50;6.90;;;4.90;99.90;;;5.44;100.00;100183.19;5047839;28;20509;-79
2021/12/18 11:04:38;;;;;;;12.87;8.10;;;4.80;99.90;;;5.46;100.00;100178.72;5043025;28;20835;-78
2021/12/18 11:07:19;;;;;;;14.27;7.77;;;4.80;99.90;;;5.47;100.00;100180.41;5043174;28;20446;-77
2021/12/18 11:10:11;;;;;;;16.10;8.73;;;4.80;99.90;;;5.47;100.00;100183.00;5048677;28;20455;-78
2021/12/18 11:15:27;;;;;;;24.70;8.20;;;4.80;99.90;;;5.37;100.00;100176.75;5050506;28;20456;-78